Time;durP1;ratioP1;P1;durP2;ratioP2;P2;SDS_P1;SDS_P2;PMS_P1;PMS_P2;Temp;Humidity;BMP_temperature;BMP_pressure;BME280_temperature;BME280_humidity;BME280_pressure;Samples;Min_cycle;Max_cycle;Signal;HPM_P1;HPM_P2
2021/06/27 00:01:15;;;;;;;5.30;2.47;;;;;;;20.84;56.58;102098.28;5011619;28;20049;-61
2021/06/27 00:03:41;;;;;;;5.38;2.50;;;;;;;20.83;56.65;102093.97;5011543;28;20042;-61
2021/06/27 00:06:07;;;;;;;4.80;2.25;;;;;;;20.83;56.60;102090.47;5024946;28;20483;-65
2021/06/27 00:08:33;;;;;;;5.13;2.20;;;;;;;20.84;56.22;102092.13;5029842;28;20071;-61
2021/06/27 00:10:59;;;;;;;5.93;2.30;;;;;;;20.82;56.22;102094.94;5030930;28;20037;-62
2021/06/27 00:13:27;;;;;;;3.85;2.15;;;;;;;20.83;56.17;102085.97;5030272;28;20044;-63
2021/06/27 00:15:54;;;;;;;6.10;2.45;;;;;;;20.83;56.53;102093.13;5031240;28;20120;-62
2021/06/27 00:18:22;;;;;;;5.05;2.40;;;;;;;20.81;56.54;102090.63;5029673;28;20033;-62
2021/06/27 00:20:50;;;;;;;4.97;2.50;;;;;;;20.81;56.45;102079.94;5031182;28;20044;-62
2021/06/27 00:23:17;;;;;;;4.75;2.17;;;;;;;20.80;56.13;102080.94;5011287;28;20663;-61
2021/06/27 00:25:43;;;;;;;4.22;2.22;;;;;;;20.81;56.01;102079.94;5030724;28;20053;-61
2021/06/27 00:28:10;;;;;;;5.82;2.13;;;;;;;20.80;56.24;102078.28;5030005;28;20072;-67
2021/06/27 00:30:38;;;;;;;6.40;2.70;;;;;;;20.80;55.97;102069.44;5004283;28;20037;-62
2021/06/27 00:33:04;;;;;;;4.68;2.10;;;;;;;20.80;56.21;102080.13;5030787;28;20044;-61
2021/06/27 00:35:31;;;;;;;4.03;1.98;;;;;;;20.79;56.07;102071.28;5029205;28;20108;-68
2021/06/27 00:37:56;;;;;;;7.05;2.70;;;;;;;20.79;56.14;102070.47;5012123;28;20060;-62
2021/06/27 00:40:24;;;;;;;4.93;2.50;;;;;;;20.79;56.18;102065.97;5030048;28;20030;-62
2021/06/27 00:42:50;;;;;;;5.07;2.15;;;;;;;20.80;56.09;102069.44;5030615;28;20024;-61
2021/06/27 00:45:18;;;;;;;5.78;2.40;;;;;;;20.79;55.90;102070.47;5029316;28;20111;-62
2021/06/27 00:47:44;;;;;;;5.78;2.53;;;;;;;20.79;56.17;102073.97;5029597;28;20033;-63
2021/06/27 00:50:14;;;;;;;4.97;2.30;;;;;;;20.78;56.09;102072.28;5029551;28;20792;-62
2021/06/27 00:52:40;;;;;;;4.45;2.05;;;;;;;20.79;55.86;102071.28;4999005;28;20051;-61
2021/06/27 00:55:06;;;;;;;4.63;2.47;;;;;;;20.79;55.76;102070.47;5010828;28;20049;-62
2021/06/27 00:57:32;;;;;;;6.35;2.50;;;;;;;20.78;55.95;102061.63;5009552;28;20046;-62
2021/06/27 01:00:00;;;;;;;4.72;2.15;;;;;;;20.78;55.85;102061.63;5009960;28;20061;-61
2021/06/27 01:02:26;;;;;;;3.47;1.92;;;;;;;20.78;55.84;102063.47;5010067;28;20042;-62
2021/06/27 01:04:52;;;;;;;4.43;2.05;;;;;;;20.77;55.95;102059.97;5014521;28;20030;-63
2021/06/27 01:07:18;;;;;;;5.82;2.42;;;;;;;20.77;55.91;102059.97;5029232;28;20408;-62
2021/06/27 01:09:43;;;;;;;5.03;2.30;;;;;;;20.77;55.91;102064.47;5011009;28;20037;-61
2021/06/27 01:12:09;;;;;;;5.15;2.10;;;;;;;20.76;55.58;102060.97;5029995;28;20438;-61
2021/06/27 01:14:34;;;;;;;3.63;2.40;;;;;;;20.77;55.87;102059.13;5028765;28;20608;-61
2021/06/27 01:17:00;;;;;;;4.80;2.42;;;;;;;20.77;55.78;102064.47;5029586;28;20033;-61
2021/06/27 01:19:32;;;;;;;5.57;2.20;;;;;;;20.74;55.69;102055.00;5029494;28;20036;-62
2021/06/27 01:21:59;;;;;;;5.15;2.05;;;;;;;20.76;55.61;102062.81;5028011;28;20104;-61
2021/06/27 01:24:25;;;;;;;4.75;2.17;;;;;;;20.77;55.73;102059.13;5029376;28;20029;-61
2021/06/27 01:26:50;;;;;;;5.07;2.40;;;;;;;20.76;55.76;102055.66;5028115;28;20030;-64
2021/06/27 01:29:16;;;;;;;4.05;2.10;;;;;;;20.76;55.62;102044.16;5029924;28;20067;-61
2021/06/27 01:31:43;;;;;;;3.88;2.03;;;;;;;20.76;55.87;102044.97;5028238;28;20717;-61
2021/06/27 01:34:09;;;;;;;4.10;1.92;;;;;;;20.76;55.88;102046.81;5011702;28;20155;-61
2021/06/27 01:36:34;;;;;;;5.63;2.50;;;;;;;20.76;55.62;102044.16;5028976;28;20113;-62
2021/06/27 01:39:00;;;;;;;4.28;2.05;;;;;;;20.75;55.93;102043.31;5028051;28;20044;-62
2021/06/27 01:41:25;;;;;;;4.60;2.40;;;;;;;20.74;55.77;102039.00;5029400;28;20044;-62
2021/06/27 01:43:51;;;;;;;4.72;2.50;;;;;;;20.75;55.49;102039.81;5028087;28;20365;-61
2021/06/27 01:46:19;;;;;;;4.20;2.40;;;;;;;20.75;55.78;102043.31;5029502;28;20053;-61
2021/06/27 01:48:45;;;;;;;3.55;1.65;;;;;;;20.75;55.76;102045.97;5028332;28;20033;-61
2021/06/27 01:51:10;;;;;;;4.55;1.98;;;;;;;20.75;55.89;102040.66;5004211;28;20049;-61
2021/06/27 01:53:39;;;;;;;4.93;1.90;;;;;;;20.76;55.73;102044.16;4961428;28;20532;-62
2021/06/27 01:56:05;;;;;;;3.55;1.77;;;;;;;20.76;55.45;102041.47;4992006;28;20042;-61
2021/06/27 01:58:52;;;;;;;4.05;1.80;;;;;;;20.72;55.57;102038.34;5009796;28;20034;-62
2021/06/27 02:01:21;;;;;;;5.05;1.98;;;;;;;20.75;55.74;102047.81;5006792;28;20038;-61
2021/06/27 02:03:49;;;;;;;4.00;2.00;;;;;;;20.75;55.48;102042.50;4981554;28;20069;-62
2021/06/27 02:06:16;;;;;;;5.53;1.95;;;;;;;20.74;55.67;102039.00;5023752;28;20112;-61
2021/06/27 02:08:43;;;;;;;4.97;2.13;;;;;;;20.74;55.80;102041.66;5027633;28;20033;-62
2021/06/27 02:11:10;;;;;;;4.10;2.10;;;;;;;20.74;55.43;102036.31;5027862;28;20041;-61
2021/06/27 02:13:37;;;;;;;5.20;2.17;;;;;;;20.74;55.58;102040.81;5002892;28;20044;-63
2021/06/27 02:16:03;;;;;;;3.75;2.00;;;;;;;20.74;55.84;102038.16;5028426;28;20380;-61
2021/06/27 02:18:38;;;;;;;3.70;1.83;;;;;;;20.73;55.46;102036.50;5027816;28;20037;-61
2021/06/27 02:21:07;;;;;;;4.80;1.88;;;;;;;20.74;55.80;102039.00;5029005;28;20059;-61
2021/06/27 02:23:33;;;;;;;3.30;1.80;;;;;;;20.74;55.70;102033.66;5026571;28;20029;-67
2021/06/27 02:26:00;;;;;;;4.28;1.92;;;;;;;20.73;55.36;102028.50;5028573;28;20298;-61
2021/06/27 02:28:25;;;;;;;4.72;1.98;;;;;;;20.74;55.61;102033.66;5027314;28;20084;-63
2021/06/27 02:30:51;;;;;;;3.70;2.08;;;;;;;20.73;55.49;102015.16;5028460;28;20041;-62
2021/06/27 02:33:18;;;;;;;3.58;1.88;;;;;;;20.72;55.25;102011.66;5027690;28;20079;-61
2021/06/27 02:35:44;;;;;;;2.63;1.60;;;;;;;20.73;55.45;102012.50;5028572;28;20112;-61
2021/06/27 02:38:10;;;;;;;5.15;2.00;;;;;;;20.72;55.55;102017.00;5027650;28;20033;-61
2021/06/27 02:40:36;;;;;;;3.25;1.80;;;;;;;20.72;55.30;102018.84;5027300;28;20358;-60
2021/06/27 02:43:01;;;;;;;4.38;1.85;;;;;;;20.72;55.40;102017.00;5028382;28;20038;-62
2021/06/27 02:45:27;;;;;;;4.65;1.80;;;;;;;20.72;55.48;102016.19;5028174;28;20053;-61
2021/06/27 02:47:52;;;;;;;3.65;1.92;;;;;;;20.71;55.28;102010.00;5027993;28;20471;-63
2021/06/27 02:50:18;;;;;;;4.97;1.83;;;;;;;20.71;55.36;102017.19;5027986;28;20452;-61
2021/06/27 02:52:44;;;;;;;4.13;1.90;;;;;;;20.71;55.37;102012.69;4997225;28;20058;-62
2021/06/27 02:55:12;;;;;;;3.00;1.90;;;;;;;20.71;55.41;102018.00;5009167;28;20072;-61
2021/06/27 02:57:39;;;;;;;3.20;1.52;;;;;;;20.71;55.28;102030.50;5008130;28;20038;-63
2021/06/27 03:00:07;;;;;;;2.88;1.60;;;;;;;20.71;55.70;102023.34;5002340;28;20041;-61
2021/06/27 03:02:33;;;;;;;3.03;1.55;;;;;;;20.70;55.50;102026.19;5001792;28;20068;-61
2021/06/27 03:04:58;;;;;;;3.47;1.92;;;;;;;20.70;55.35;102035.03;5013148;28;20065;-61
2021/06/27 03:07:24;;;;;;;3.17;1.60;;;;;;;20.70;55.57;102029.69;5027294;28;20025;-60
2021/06/27 03:09:49;;;;;;;3.13;1.70;;;;;;;20.70;55.43;102020.84;5026894;28;20021;-61
2021/06/27 03:12:15;;;;;;;2.75;1.40;;;;;;;20.70;55.54;102015.53;5027783;28;20037;-62
2021/06/27 03:14:40;;;;;;;3.70;1.73;;;;;;;20.69;55.66;102022.69;5027061;28;20044;-63
2021/06/27 03:17:06;;;;;;;3.55;1.50;;;;;;;20.70;55.29;102015.53;5010304;28;20037;-63
2021/06/27 03:19:31;;;;;;;3.47;1.67;;;;;;;20.70;55.55;102019.03;5027741;28;20488;-63
2021/06/27 03:21:57;;;;;;;2.80;1.45;;;;;;;20.69;55.54;102014.69;5026370;28;20030;-62
2021/06/27 03:24:22;;;;;;;2.60;1.60;;;;;;;20.70;55.69;102018.19;5027846;28;20108;-62
2021/06/27 03:26:48;;;;;;;2.90;1.58;;;;;;;20.69;55.33;102013.88;5026486;28;20049;-62
2021/06/27 03:29:13;;;;;;;3.85;1.80;;;;;;;20.69;55.70;102014.69;5028022;28;20091;-61
2021/06/27 03:31:39;;;;;;;3.38;1.50;;;;;;;20.68;55.64;102020.22;5026600;28;20037;-61
2021/06/27 03:34:04;;;;;;;2.85;1.52;;;;;;;20.68;55.16;102012.22;5027904;28;20037;-61
2021/06/27 03:36:30;;;;;;;2.90;1.38;;;;;;;20.68;55.44;102012.22;5027903;28;20103;-64
2021/06/27 03:39:06;;;;;;;3.53;1.83;;;;;;;20.67;55.22;102016.72;5026141;28;20120;-63
2021/06/27 03:41:48;;;;;;;3.38;1.42;;;;;;;20.67;55.31;102014.03;5027890;28;20041;-62
2021/06/27 03:44:13;;;;;;;2.85;1.58;;;;;;;20.67;55.29;102024.72;5029729;28;20448;-62
2021/06/27 03:46:39;;;;;;;3.10;1.42;;;;;;;20.68;55.08;102018.38;5031161;28;20038;-61
2021/06/27 03:49:04;;;;;;;2.13;1.23;;;;;;;20.67;55.38;102015.84;5030964;28;20034;-61
2021/06/27 03:51:31;;;;;;;2.80;1.40;;;;;;;20.67;55.49;102023.84;5018415;28;20030;-64
2021/06/27 03:53:56;;;;;;;2.50;1.35;;;;;;;20.66;55.37;102023.00;5003409;28;20049;-63
2021/06/27 03:56:22;;;;;;;3.40;1.73;;;;;;;20.66;55.19;102020.34;5006616;28;20045;-61
2021/06/27 03:58:48;;;;;;;3.08;1.50;;;;;;;20.65;55.16;102010.69;4992447;28;20062;-61
2021/06/27 04:01:15;;;;;;;3.28;1.20;;;;;;;20.67;55.25;102010.50;4996290;28;20386;-61
2021/06/27 04:03:40;;;;;;;2.38;1.25;;;;;;;20.65;55.32;102008.03;5004639;28;20042;-63
2021/06/27 04:06:06;;;;;;;2.25;1.20;;;;;;;20.65;55.01;102002.69;4996978;28;20042;-61
2021/06/27 04:08:33;;;;;;;3.72;1.45;;;;;;;20.65;55.33;102002.69;4994398;28;20116;-61
2021/06/27 04:10:59;;;;;;;2.70;1.40;;;;;;;20.64;55.22;101998.38;5011976;28;20042;-61
2021/06/27 04:13:30;;;;;;;4.00;1.33;;;;;;;20.64;55.09;102006.38;5009329;28;20068;-61
2021/06/27 04:15:59;;;;;;;2.10;1.20;;;;;;;20.64;55.36;102009.88;4999479;28;20049;-61
2021/06/27 04:18:25;;;;;;;3.13;1.27;;;;;;;20.64;55.02;102007.19;5011163;28;20040;-63
2021/06/27 04:20:54;;;;;;;2.28;1.20;;;;;;;20.64;55.41;101993.88;5011410;28;20113;-62
2021/06/27 04:23:20;;;;;;;2.13;1.25;;;;;;;20.64;55.14;101998.38;5011007;28;20153;-61
2021/06/27 04:25:46;;;;;;;3.47;1.35;;;;;;;20.64;55.20;102001.03;5010775;28;20124;-62
2021/06/27 04:28:12;;;;;;;2.72;1.58;;;;;;;20.65;55.38;101994.69;5000312;28;20111;-61
2021/06/27 04:30:38;;;;;;;2.83;1.40;;;;;;;20.64;55.02;102001.03;4991552;28;20100;-62
2021/06/27 04:33:05;;;;;;;2.90;1.40;;;;;;;20.63;55.27;102002.88;5000054;28;20505;-61
2021/06/27 04:35:34;;;;;;;2.30;1.40;;;;;;;20.62;55.24;102003.88;5010895;28;20501;-61
2021/06/27 04:38:00;;;;;;;1.98;1.13;;;;;;;20.64;55.27;102003.69;5010319;28;20165;-61
2021/06/27 04:40:26;;;;;;;2.28;1.45;;;;;;;20.63;55.05;102000.22;5011269;28;20112;-62
2021/06/27 04:42:51;;;;;;;2.55;1.10;;;;;;;20.63;55.06;101994.03;5010393;28;20099;-62
2021/06/27 04:45:17;;;;;;;2.35;1.30;;;;;;;20.62;54.76;101995.88;5010762;28;20064;-63
2021/06/27 04:47:43;;;;;;;1.70;1.15;;;;;;;20.62;54.90;101987.06;5009543;28;20040;-63
2021/06/27 04:50:08;;;;;;;2.63;1.10;;;;;;;20.61;55.05;101980.88;5010144;28;20093;-64
2021/06/27 04:52:35;;;;;;;3.05;1.13;;;;;;;20.62;54.78;101984.38;5005285;28;20064;-62
2021/06/27 04:55:02;;;;;;;3.42;1.50;;;;;;;20.61;55.27;101985.41;5006361;28;20042;-64
2021/06/27 04:57:27;;;;;;;3.53;1.40;;;;;;;20.61;55.00;101988.06;4994431;28;20038;-65
2021/06/27 04:59:53;;;;;;;2.10;1.20;;;;;;;20.62;55.44;101992.38;5006385;28;20037;-63
2021/06/27 05:02:18;;;;;;;1.73;1.23;;;;;;;20.63;55.68;101988.72;5006405;28;20030;-63
2021/06/27 05:04:44;;;;;;;2.35;1.10;;;;;;;20.62;55.76;101990.56;5004356;28;20045;-62
2021/06/27 05:07:09;;;;;;;3.17;1.20;;;;;;;20.62;55.58;101987.06;4994523;28;20034;-62
2021/06/27 05:09:35;;;;;;;2.40;1.15;;;;;;;20.62;55.85;101993.22;4993232;28;20049;-62
2021/06/27 05:12:00;;;;;;;2.35;1.17;;;;;;;20.63;56.17;101994.88;5001196;28;20034;-59
2021/06/27 05:14:25;;;;;;;3.08;1.10;;;;;;;20.64;55.98;101995.69;4999742;28;20133;-60
2021/06/27 05:16:51;;;;;;;3.72;1.60;;;;;;;20.63;56.03;101994.88;4991139;28;20424;-62
2021/06/27 05:19:16;;;;;;;2.20;1.40;;;;;;;20.63;56.06;101996.72;4997187;28;20666;-65
2021/06/27 05:21:42;;;;;;;2.45;1.30;;;;;;;20.64;56.55;101995.69;5001545;28;20059;-62
2021/06/27 05:24:07;;;;;;;2.38;1.20;;;;;;;20.64;56.29;101995.69;4990218;28;20045;-64
2021/06/27 05:26:33;;;;;;;2.65;1.30;;;;;;;20.63;56.65;101986.88;5006102;28;20501;-63
2021/06/27 05:28:58;;;;;;;6.65;1.45;;;;;;;20.64;56.42;102001.03;5005346;28;20042;-62
2021/06/27 05:31:24;;;;;;;3.20;1.50;;;;;;;20.64;56.44;101990.38;5000285;28;20125;-63
2021/06/27 05:33:49;;;;;;;2.10;1.10;;;;;;;20.65;56.86;101994.69;4991705;28;20555;-66
2021/06/27 05:36:15;;;;;;;2.47;1.08;;;;;;;20.67;56.82;101997.19;4988548;28;20038;-62
2021/06/27 05:38:40;;;;;;;2.55;1.25;;;;;;;20.67;57.09;101998.03;4988319;28;20034;-64
2021/06/27 05:41:06;;;;;;;2.67;1.25;;;;;;;20.67;56.90;101998.03;4993176;28;20038;-62
2021/06/27 05:43:32;;;;;;;3.53;1.45;;;;;;;20.67;57.22;101999.84;4989627;28;20092;-67
2021/06/27 05:45:58;;;;;;;3.60;1.40;;;;;;;20.68;56.95;102002.38;4992932;28;20037;-65
2021/06/27 05:48:23;;;;;;;2.55;1.35;;;;;;;20.69;57.09;101997.88;4988909;28;20124;-64
2021/06/27 05:50:49;;;;;;;4.43;1.77;;;;;;;20.68;57.45;101997.03;4990987;28;20117;-62
2021/06/27 05:53:14;;;;;;;2.53;1.20;;;;;;;20.70;57.53;101996.84;4987514;28;20149;-66
2021/06/27 05:55:40;;;;;;;3.58;1.38;;;;;;;20.70;57.08;101991.53;4989481;28;20240;-63
2021/06/27 05:58:05;;;;;;;4.03;1.08;;;;;;;20.70;57.45;101995.03;4991164;28;20124;-62
2021/06/27 06:00:30;;;;;;;2.40;1.30;;;;;;;20.70;57.59;101996.84;4989821;28;20034;-64
2021/06/27 06:02:56;;;;;;;2.67;1.15;;;;;;;20.70;57.30;101995.03;4993295;28;20029;-62
2021/06/27 06:05:21;;;;;;;3.83;1.20;;;;;;;20.70;57.66;101984.34;4987292;28;20042;-63
2021/06/27 06:07:47;;;;;;;4.90;1.10;;;;;;;20.71;57.45;102002.00;4988624;28;20041;-64
2021/06/27 06:10:12;;;;;;;3.92;1.55;;;;;;;20.72;57.90;102003.66;4974411;28;20088;-62
2021/06/27 06:12:38;;;;;;;2.58;1.10;;;;;;;20.71;57.42;102002.00;4989206;28;20034;-62
2021/06/27 06:15:04;;;;;;;2.55;1.40;;;;;;;20.71;57.49;102003.84;5002614;28;20040;-61
2021/06/27 06:17:30;;;;;;;1.75;1.10;;;;;;;20.73;57.31;102004.50;5004770;28;20508;-61
2021/06/27 06:19:55;;;;;;;1.92;1.10;;;;;;;20.72;57.29;102002.84;5004920;28;20042;-63
2021/06/27 06:22:21;;;;;;;2.67;0.95;;;;;;;20.72;57.56;102001.00;5004332;28;20545;-62
2021/06/27 06:24:48;;;;;;;2.25;1.02;;;;;;;20.73;57.29;101993.84;5004898;28;20041;-62
2021/06/27 06:27:13;;;;;;;1.83;1.17;;;;;;;20.73;57.58;101993.84;5004316;28;20048;-60
2021/06/27 06:29:39;;;;;;;2.30;1.10;;;;;;;20.75;57.48;101997.16;4991246;28;20038;-62
2021/06/27 06:32:05;;;;;;;5.10;1.20;;;;;;;20.73;57.53;101991.16;4992636;28;20538;-62
2021/06/27 06:34:30;;;;;;;2.05;1.00;;;;;;;20.74;57.37;101998.16;4995389;28;20080;-61
2021/06/27 06:36:56;;;;;;;2.00;1.10;;;;;;;20.74;57.36;101991.00;4999164;28;20193;-65
2021/06/27 06:39:21;;;;;;;2.25;1.20;;;;;;;20.74;57.39;101995.50;4989494;28;20417;-62
2021/06/27 06:41:46;;;;;;;3.10;1.10;;;;;;;20.73;57.37;101989.34;4987428;28;20038;-62
2021/06/27 06:44:12;;;;;;;5.57;1.20;;;;;;;20.75;57.50;101991.81;4990250;28;20034;-61
2021/06/27 06:46:37;;;;;;;2.10;1.10;;;;;;;20.74;57.67;101987.50;4989368;28;20111;-64
2021/06/27 06:49:03;;;;;;;2.40;1.00;;;;;;;20.74;57.62;101991.00;4992500;28;20103;-61
2021/06/27 06:51:28;;;;;;;2.75;1.33;;;;;;;20.73;57.59;101991.16;4989432;28;20046;-61
2021/06/27 06:53:54;;;;;;;3.38;1.15;;;;;;;20.74;57.55;101992.81;4988148;28;20046;-61
2021/06/27 06:56:21;;;;;;;2.63;1.30;;;;;;;20.75;57.38;101991.81;4990354;28;20613;-62
2021/06/27 06:58:46;;;;;;;1.85;1.10;;;;;;;20.74;57.50;101992.81;4987285;28;20038;-62
2021/06/27 07:01:12;;;;;;;1.73;1.10;;;;;;;20.74;57.29;101998.16;4989828;28;20038;-61
2021/06/27 07:03:37;;;;;;;3.70;1.10;;;;;;;20.74;57.46;101996.31;4995545;28;20038;-62
2021/06/27 07:06:03;;;;;;;1.95;1.00;;;;;;;20.75;57.50;101992.66;5002491;28;20037;-62
2021/06/27 07:08:29;;;;;;;4.00;1.40;;;;;;;20.74;57.38;101988.31;5003638;28;20040;-63
2021/06/27 07:10:56;;;;;;;2.08;1.00;;;;;;;20.75;57.31;101983.81;5004258;28;20030;-64
2021/06/27 07:13:21;;;;;;;5.18;1.30;;;;;;;20.76;57.17;101986.31;5003804;28;20329;-63
2021/06/27 07:15:48;;;;;;;3.38;1.35;;;;;;;20.74;57.28;101980.31;5001998;28;20038;-63
2021/06/27 07:18:13;;;;;;;2.25;1.42;;;;;;;20.74;57.29;101983.00;5002518;28;20052;-62
2021/06/27 07:20:39;;;;;;;3.40;1.20;;;;;;;20.74;57.62;101979.50;5007009;28;20034;-65
2021/06/27 07:23:05;;;;;;;3.85;1.85;;;;;;;20.72;57.38;101986.84;4985832;28;20080;-63
2021/06/27 07:25:30;;;;;;;3.35;1.38;;;;;;;20.72;57.06;101981.50;5007763;28;20044;-64
2021/06/27 07:27:56;;;;;;;3.25;1.38;;;;;;;20.72;57.58;101989.50;5008350;28;20120;-66
2021/06/27 07:30:22;;;;;;;4.85;1.58;;;;;;;20.70;57.57;101984.34;5008595;28;20057;-63
2021/06/27 07:32:48;;;;;;;4.15;1.40;;;;;;;20.70;57.70;101981.69;5002390;28;20026;-63
2021/06/27 07:35:13;;;;;;;3.80;1.50;;;;;;;20.70;57.48;101984.34;4994130;28;20034;-63
2021/06/27 07:37:39;;;;;;;4.20;1.35;;;;;;;20.69;57.38;101985.38;5006806;28;20037;-64
2021/06/27 07:40:05;;;;;;;9.40;1.95;;;;;;;20.68;57.03;101983.72;5007488;28;20369;-63
2021/06/27 07:42:30;;;;;;;7.72;2.08;;;;;;;20.68;57.20;101980.22;4991004;28;20104;-64
2021/06/27 07:44:56;;;;;;;5.00;1.70;;;;;;;20.66;57.39;101983.03;5010504;28;20451;-63
2021/06/27 07:47:21;;;;;;;5.47;1.60;;;;;;;20.67;57.48;101984.72;4992232;28;20393;-64
2021/06/27 07:49:47;;;;;;;7.72;1.73;;;;;;;20.66;57.28;101977.69;5011269;28;20030;-66
2021/06/27 07:52:12;;;;;;;2.45;1.48;;;;;;;20.66;56.88;101972.34;5010395;28;20075;-66
2021/06/27 07:54:38;;;;;;;7.32;1.80;;;;;;;20.65;57.11;101986.69;5011176;28;20392;-64
2021/06/27 07:57:05;;;;;;;6.57;1.50;;;;;;;20.64;56.90;101979.72;5010784;28;20037;-62
2021/06/27 07:59:30;;;;;;;5.20;1.75;;;;;;;20.63;56.88;101984.22;5011571;28;20131;-60
2021/06/27 08:01:56;;;;;;;4.47;1.48;;;;;;;20.63;56.99;101983.38;5011255;28;20137;-63
2021/06/27 08:04:21;;;;;;;6.18;1.75;;;;;;;20.62;56.76;101987.88;4995874;28;20488;-63
2021/06/27 08:06:47;;;;;;;4.22;1.83;;;;;;;20.61;56.71;101986.22;5006959;28;20063;-64
2021/06/27 08:09:13;;;;;;;7.18;1.63;;;;;;;20.61;56.27;101991.56;5011303;28;20066;-63
2021/06/27 08:11:38;;;;;;;6.63;1.65;;;;;;;20.60;56.38;101989.91;5005725;28;20046;-63
2021/06/27 08:14:04;;;;;;;5.28;2.13;;;;;;;20.60;56.54;101987.22;5010993;28;20042;-63
2021/06/27 08:16:30;;;;;;;8.40;1.70;;;;;;;20.60;55.99;101981.06;4993761;28;20536;-64
2021/06/27 08:18:56;;;;;;;4.57;1.38;;;;;;;20.59;56.09;101982.06;5010628;28;20034;-62
2021/06/27 08:21:21;;;;;;;4.85;1.70;;;;;;;20.57;56.07;101984.09;5011031;28;20044;-62
2021/06/27 08:23:47;;;;;;;3.85;1.75;;;;;;;20.58;56.34;101988.41;5010056;28;20057;-63
2021/06/27 08:26:12;;;;;;;5.00;1.88;;;;;;;20.55;55.98;101978.94;4992175;28;20079;-62
2021/06/27 08:28:38;;;;;;;4.20;1.58;;;;;;;20.55;56.19;101986.94;5007935;28;20045;-60
2021/06/27 08:31:03;;;;;;;5.53;1.77;;;;;;;20.53;55.91;101977.47;5007948;28;20042;-62
2021/06/27 08:33:30;;;;;;;4.82;1.58;;;;;;;20.52;55.82;101973.13;5007096;28;20033;-61
2021/06/27 08:35:55;;;;;;;4.80;1.42;;;;;;;20.51;55.89;101972.31;5007698;28;20519;-64
2021/06/27 08:38:21;;;;;;;5.10;1.58;;;;;;;20.49;55.91;101960.97;5006404;28;20123;-65
2021/06/27 08:40:46;;;;;;;6.78;1.92;;;;;;;20.50;55.94;101967.13;5007107;28;20055;-62
2021/06/27 08:43:12;;;;;;;3.28;1.45;;;;;;;20.49;55.89;101962.78;5007286;28;20046;-63
2021/06/27 08:45:50;;;;;;;4.53;1.98;;;;;;;20.49;56.13;101965.47;5007837;28;20135;-64
2021/06/27 08:48:19;;;;;;;7.75;1.65;;;;;;;20.52;56.18;101959.81;5008671;28;20109;-62
2021/06/27 08:50:45;;;;;;;2.42;1.67;;;;;;;20.51;55.76;101955.44;5007461;28;20041;-63
2021/06/27 08:53:10;;;;;;;3.72;1.50;;;;;;;20.52;56.14;101965.13;5005874;28;20061;-62
2021/06/27 08:55:35;;;;;;;4.22;1.38;;;;;;;20.53;55.83;101961.47;5007126;28;20045;-62
2021/06/27 08:58:02;;;;;;;7.63;1.70;;;;;;;20.54;56.01;101963.13;5006537;28;20053;-63
2021/06/27 09:00:27;;;;;;;4.97;2.00;;;;;;;20.55;55.78;101959.44;5007775;28;20041;-64
2021/06/27 09:02:53;;;;;;;6.47;2.05;;;;;;;20.55;55.88;101960.28;5006076;28;20036;-64
2021/06/27 09:05:20;;;;;;;6.55;1.80;;;;;;;20.56;55.88;101953.09;4999592;28;20671;-61
2021/06/27 09:07:46;;;;;;;7.07;1.63;;;;;;;20.56;56.10;101948.59;5000498;28;20033;-63
2021/06/27 09:10:17;;;;;;;7.45;1.70;;;;;;;20.56;56.09;101950.44;5006644;28;20045;-61
2021/06/27 09:12:58;;;;;;;2.35;1.27;;;;;;;20.54;55.91;101945.28;5007352;28;20117;-62
2021/06/27 09:15:45;;;;;;;4.85;1.40;;;;;;;20.53;56.12;101948.13;5006018;28;20072;-62
2021/06/27 09:18:13;;;;;;;7.40;2.13;;;;;;;20.55;55.67;101948.78;5001821;28;20474;-60
2021/06/27 09:20:40;;;;;;;6.05;1.88;;;;;;;20.55;56.18;101938.13;5007493;28;20042;-60
2021/06/27 09:23:07;;;;;;;5.15;1.75;;;;;;;20.54;55.69;101947.13;5005187;28;20038;-63
2021/06/27 09:25:33;;;;;;;5.75;1.70;;;;;;;20.53;55.93;101945.47;5007450;28;20696;-62
2021/06/27 09:28:13;;;;;;;8.98;1.98;;;;;;;20.49;55.49;101944.97;5007148;28;20041;-62
2021/06/27 09:30:41;;;;;;;5.43;1.67;;;;;;;20.49;55.60;101944.13;5001289;28;20485;-64
2021/06/27 09:33:14;;;;;;;9.57;1.90;;;;;;;20.46;55.43;101942.66;5001019;28;20033;-64
2021/06/27 09:35:59;;;;;;;5.60;1.80;;;;;;;20.44;55.21;101936.69;5007040;28;20033;-62
2021/06/27 09:38:29;;;;;;;7.63;1.55;;;;;;;20.44;55.48;101936.69;5001055;28;20033;-63
2021/06/27 09:40:58;;;;;;;10.10;2.38;;;;;;;20.43;55.12;101939.50;5001228;28;20026;-63
2021/06/27 09:43:25;;;;;;;7.40;1.98;;;;;;;20.42;55.49;101930.69;5008128;28;20037;-62
2021/06/27 09:45:54;;;;;;;7.25;2.08;;;;;;;20.42;55.22;101930.69;5008132;28;20449;-63
2021/06/27 09:48:19;;;;;;;3.85;1.70;;;;;;;20.41;55.15;101930.84;5008928;28;20025;-63
2021/06/27 09:50:45;;;;;;;5.65;1.98;;;;;;;20.40;55.22;101934.50;5009113;28;20423;-62
2021/06/27 09:53:37;;;;;;;6.05;1.70;;;;;;;20.36;55.18;101930.53;5007784;28;20096;-64
2021/06/27 09:56:07;;;;;;;4.57;1.70;;;;;;;20.36;55.47;101923.38;5008660;28;20113;-62
2021/06/27 09:58:33;;;;;;;8.82;2.05;;;;;;;20.36;55.37;101925.22;5008900;28;20037;-62
2021/06/27 10:00:59;;;;;;;4.78;1.90;;;;;;;20.36;55.38;101925.22;4993055;28;20457;-62
2021/06/27 10:03:28;;;;;;;3.90;1.60;;;;;;;20.35;55.25;101924.34;5008723;28;20100;-62
2021/06/27 10:06:09;;;;;;;3.55;1.50;;;;;;;20.31;55.26;101917.72;4995930;28;20045;-62
2021/06/27 10:08:35;;;;;;;2.65;1.60;;;;;;;20.33;55.21;101923.69;4994441;28;20115;-62
2021/06/27 10:11:26;;;;;;;3.70;1.70;;;;;;;20.28;55.16;101921.56;5008803;28;20120;-62
2021/06/27 10:13:54;;;;;;;2.65;1.50;;;;;;;20.33;55.42;101923.69;5005290;28;20073;-62
2021/06/27 10:16:31;;;;;;;3.42;1.67;;;;;;;20.31;54.78;101937.19;5008125;28;20040;-66
2021/06/27 10:18:58;;;;;;;3.55;1.50;;;;;;;20.32;55.19;101922.88;4996339;28;20109;-63
2021/06/27 10:21:25;;;;;;;3.30;1.83;;;;;;;20.32;54.93;101933.53;5008501;28;20049;-62
2021/06/27 10:23:51;;;;;;;3.58;1.52;;;;;;;20.31;55.20;101933.72;4987756;28;20026;-63
2021/06/27 10:26:20;;;;;;;2.83;1.30;;;;;;;20.30;54.76;101935.53;5000562;28;20060;-63
2021/06/27 10:28:47;;;;;;;5.07;2.00;;;;;;;20.30;55.00;101935.53;4994363;28;20026;-61
2021/06/27 10:31:14;;;;;;;2.58;1.48;;;;;;;20.29;54.77;101933.88;4997633;28;20478;-64
2021/06/27 10:33:41;;;;;;;2.10;1.50;;;;;;;20.30;55.02;101935.53;4991428;28;20038;-62
2021/06/27 10:36:09;;;;;;;2.63;1.40;;;;;;;20.29;54.76;101928.56;5008796;28;20030;-62
2021/06/27 10:38:39;;;;;;;3.05;1.50;;;;;;;20.29;54.70;101925.06;4992750;28;20061;-62
2021/06/27 10:41:04;;;;;;;2.95;1.52;;;;;;;20.27;54.66;101922.56;4996216;28;20060;-62
2021/06/27 10:43:58;;;;;;;3.10;1.50;;;;;;;20.25;54.81;101915.75;5008220;28;20037;-62
2021/06/27 10:46:37;;;;;;;;;;;;;;;20.21;54.94;101925.13;4998578;28;20524;-63
2021/06/27 10:49:03;;;;;;;4.00;1.60;;;;;;;20.28;54.68;101923.41;5008180;28;19918;-63
2021/06/27 10:51:58;;;;;;;1.73;1.33;;;;;;;20.25;54.74;101918.44;5001106;28;20490;-62
2021/06/27 10:54:23;;;;;;;2.20;1.48;;;;;;;20.28;54.86;101918.91;5011116;28;20033;-63
2021/06/27 10:57:06;;;;;;;1.90;1.20;;;;;;;20.26;54.64;101915.59;5011871;28;20026;-62
2021/06/27 10:59:54;;;;;;;3.72;1.55;;;;;;;20.25;54.55;101915.75;4998154;28;20376;-62
2021/06/27 11:02:25;;;;;;;2.05;1.75;;;;;;;20.26;54.69;101907.59;5011726;28;20038;-64
2021/06/27 11:04:52;;;;;;;4.15;1.25;;;;;;;20.28;54.36;101913.56;5007682;28;20042;-64
2021/06/27 11:07:47;;;;;;;3.20;1.50;;;;;;;20.24;54.34;101909.59;5002220;28;20038;-64
2021/06/27 11:10:22;;;;;;;5.72;1.30;;;;;;;20.27;54.33;101913.75;4968283;28;20045;-63
2021/06/27 11:15:45;;;;;;;6.45;1.40;;;;;;;20.25;54.62;101905.09;4998842;28;20084;-64
2021/06/27 11:18:11;;;;;;;3.95;1.30;;;;;;;20.27;54.55;101909.25;5010611;28;20042;-63
2021/06/27 11:20:52;;;;;;;2.25;1.30;;;;;;;20.26;54.59;101904.09;5012200;28;20034;-60
2021/06/27 11:23:17;;;;;;;3.70;1.58;;;;;;;20.28;54.65;101905.59;4989961;28;20391;-64
2021/06/27 11:25:46;;;;;;;2.72;1.60;;;;;;;20.28;54.65;101899.41;5012340;28;20465;-62
2021/06/27 11:28:21;;;;;;;3.28;1.60;;;;;;;20.28;54.77;101891.44;4999281;28;20038;-64
2021/06/27 11:30:46;;;;;;;;;;;;;;;20.21;55.18;101893.97;5009156;28;20033;-66